sensor_id;sensor_type;location;lat;lon;timestamp;P1;durP1;ratioP1;P2;durP2;ratioP2
41039;SDS011;48586;50.122;18.972;2022-07-29T00:00:08;11.77;;;5.03;;
41039;SDS011;48586;50.122;18.972;2022-07-29T00:03:11;10.50;;;4.75;;
41039;SDS011;48586;50.122;18.972;2022-07-29T00:06:14;15.57;;;4.72;;
41039;SDS011;48586;50.122;18.972;2022-07-29T00:09:16;8.48;;;4.40;;
41039;SDS011;48586;50.122;18.972;2022-07-29T00:12:19;9.40;;;4.68;;
41039;SDS011;48586;50.122;18.972;2022-07-29T00:15:23;10.70;;;4.85;;
41039;SDS011;48586;50.122;18.972;2022-07-29T00:18:25;12.05;;;4.82;;
41039;SDS011;48586;50.122;18.972;2022-07-29T00:21:27;10.88;;;4.63;;
41039;SDS011;48586;50.122;18.972;2022-07-29T00:24:29;9.95;;;4.75;;
41039;SDS011;48586;50.122;18.972;2022-07-29T00:27:32;9.77;;;5.20;;
41039;SDS011;48586;50.122;18.972;2022-07-29T00:30:35;9.93;;;4.53;;
41039;SDS011;48586;50.122;18.972;2022-07-29T00:33:37;11.57;;;4.55;;
41039;SDS011;48586;50.122;18.972;2022-07-29T00:36:39;10.05;;;5.10;;
41039;SDS011;48586;50.122;18.972;2022-07-29T00:39:41;14.30;;;5.40;;
41039;SDS011;48586;50.122;18.972;2022-07-29T00:42:45;11.55;;;5.05;;
41039;SDS011;48586;50.122;18.972;2022-07-29T00:45:49;14.48;;;4.90;;
41039;SDS011;48586;50.122;18.972;2022-07-29T00:48:52;7.50;;;4.63;;
41039;SDS011;48586;50.122;18.972;2022-07-29T00:51:54;7.97;;;4.47;;
41039;SDS011;48586;50.122;18.972;2022-07-29T00:54:57;9.93;;;4.85;;
41039;SDS011;48586;50.122;18.972;2022-07-29T00:57:59;13.60;;;4.30;;
41039;SDS011;48586;50.122;18.972;2022-07-29T01:01:03;7.90;;;3.80;;
41039;SDS011;48586;50.122;18.972;2022-07-29T01:04:05;12.73;;;4.78;;
41039;SDS011;48586;50.122;18.972;2022-07-29T01:07:08;8.05;;;4.53;;
41039;SDS011;48586;50.122;18.972;2022-07-29T01:10:12;15.93;;;4.70;;
41039;SDS011;48586;50.122;18.972;2022-07-29T01:13:16;9.27;;;4.47;;
41039;SDS011;48586;50.122;18.972;2022-07-29T01:16:23;10.85;;;4.68;;
41039;SDS011;48586;50.122;18.972;2022-07-29T01:19:33;13.52;;;4.10;;
41039;SDS011;48586;50.122;18.972;2022-07-29T01:23:06;9.45;;;4.55;;
41039;SDS011;48586;50.122;18.972;2022-07-29T01:26:34;12.35;;;4.60;;
41039;SDS011;48586;50.122;18.972;2022-07-29T01:29:46;13.23;;;4.47;;
41039;SDS011;48586;50.122;18.972;2022-07-29T01:32:54;7.63;;;3.97;;
41039;SDS011;48586;50.122;18.972;2022-07-29T01:36:01;8.35;;;3.67;;
41039;SDS011;48586;50.122;18.972;2022-07-29T01:39:09;7.57;;;3.65;;
41039;SDS011;48586;50.122;18.972;2022-07-29T01:42:14;7.60;;;3.60;;
41039;SDS011;48586;50.122;18.972;2022-07-29T01:45:25;5.85;;;3.30;;
41039;SDS011;48586;50.122;18.972;2022-07-29T01:48:34;10.85;;;3.33;;
41039;SDS011;48586;50.122;18.972;2022-07-29T01:51:43;10.43;;;3.42;;
41039;SDS011;48586;50.122;18.972;2022-07-29T01:54:51;9.75;;;3.55;;
41039;SDS011;48586;50.122;18.972;2022-07-29T01:57:57;6.45;;;3.00;;
41039;SDS011;48586;50.122;18.972;2022-07-29T02:01:03;8.60;;;3.25;;
41039;SDS011;48586;50.122;18.972;2022-07-29T02:04:06;7.75;;;3.60;;
41039;SDS011;48586;50.122;18.972;2022-07-29T02:07:12;10.73;;;3.22;;
41039;SDS011;48586;50.122;18.972;2022-07-29T02:10:17;7.45;;;3.00;;
41039;SDS011;48586;50.122;18.972;2022-07-29T02:16:26;10.95;;;3.33;;
41039;SDS011;48586;50.122;18.972;2022-07-29T02:19:30;8.50;;;3.85;;
41039;SDS011;48586;50.122;18.972;2022-07-29T02:22:35;8.18;;;3.15;;
41039;SDS011;48586;50.122;18.972;2022-07-29T02:25:39;5.45;;;3.30;;
41039;SDS011;48586;50.122;18.972;2022-07-29T02:28:43;10.20;;;3.70;;
41039;SDS011;48586;50.122;18.972;2022-07-29T02:31:48;7.90;;;3.58;;
41039;SDS011;48586;50.122;18.972;2022-07-29T02:34:51;7.47;;;3.60;;
41039;SDS011;48586;50.122;18.972;2022-07-29T02:37:54;8.65;;;3.53;;
41039;SDS011;48586;50.122;18.972;2022-07-29T02:41:15;8.40;;;3.42;;
41039;SDS011;48586;50.122;18.972;2022-07-29T02:44:20;6.15;;;3.25;;
41039;SDS011;48586;50.122;18.972;2022-07-29T02:47:27;5.25;;;3.17;;
41039;SDS011;48586;50.122;18.972;2022-07-29T02:50:37;7.97;;;4.22;;
41039;SDS011;48586;50.122;18.972;2022-07-29T02:53:44;11.45;;;4.68;;
41039;SDS011;48586;50.122;18.972;2022-07-29T02:56:53;10.65;;;3.53;;
41039;SDS011;48586;50.122;18.972;2022-07-29T02:59:57;5.90;;;3.45;;
41039;SDS011;48586;50.122;18.972;2022-07-29T03:03:06;13.52;;;3.63;;
41039;SDS011;48586;50.122;18.972;2022-07-29T03:09:16;13.63;;;4.55;;
41039;SDS011;48586;50.122;18.972;2022-07-29T03:12:19;6.85;;;3.20;;
41039;SDS011;48586;50.122;18.972;2022-07-29T03:15:21;7.70;;;3.80;;
41039;SDS011;48586;50.122;18.972;2022-07-29T03:18:24;9.80;;;3.65;;
41039;SDS011;48586;50.122;18.972;2022-07-29T03:21:27;11.38;;;4.05;;
41039;SDS011;48586;50.122;18.972;2022-07-29T03:24:29;8.70;;;3.65;;
41039;SDS011;48586;50.122;18.972;2022-07-29T03:27:32;5.82;;;3.30;;
41039;SDS011;48586;50.122;18.972;2022-07-29T03:30:35;9.85;;;3.55;;
41039;SDS011;48586;50.122;18.972;2022-07-29T03:33:38;7.95;;;3.88;;
41039;SDS011;48586;50.122;18.972;2022-07-29T03:36:40;10.60;;;3.50;;
41039;SDS011;48586;50.122;18.972;2022-07-29T03:39:42;8.95;;;3.72;;
41039;SDS011;48586;50.122;18.972;2022-07-29T03:42:45;7.78;;;3.70;;
41039;SDS011;48586;50.122;18.972;2022-07-29T03:45:49;8.48;;;3.60;;
41039;SDS011;48586;50.122;18.972;2022-07-29T03:48:56;7.05;;;3.63;;
41039;SDS011;48586;50.122;18.972;2022-07-29T03:52:01;10.63;;;3.42;;
41039;SDS011;48586;50.122;18.972;2022-07-29T03:55:04;6.15;;;3.38;;
41039;SDS011;48586;50.122;18.972;2022-07-29T03:58:06;8.98;;;3.80;;
41039;SDS011;48586;50.122;18.972;2022-07-29T04:01:09;9.93;;;3.58;;
41039;SDS011;48586;50.122;18.972;2022-07-29T04:04:13;9.48;;;3.28;;
41039;SDS011;48586;50.122;18.972;2022-07-29T04:07:15;13.90;;;3.70;;
41039;SDS011;48586;50.122;18.972;2022-07-29T04:10:17;8.23;;;3.40;;
41039;SDS011;48586;50.122;18.972;2022-07-29T04:13:20;11.98;;;2.97;;
41039;SDS011;48586;50.122;18.972;2022-07-29T04:16:22;7.07;;;3.35;;
41039;SDS011;48586;50.122;18.972;2022-07-29T04:19:25;6.75;;;3.05;;
41039;SDS011;48586;50.122;18.972;2022-07-29T04:22:27;6.53;;;3.63;;
41039;SDS011;48586;50.122;18.972;2022-07-29T04:25:29;6.75;;;3.17;;
41039;SDS011;48586;50.122;18.972;2022-07-29T04:28:31;10.18;;;3.20;;
41039;SDS011;48586;50.122;18.972;2022-07-29T04:31:33;13.65;;;3.45;;
41039;SDS011;48586;50.122;18.972;2022-07-29T04:34:36;7.65;;;3.60;;
41039;SDS011;48586;50.122;18.972;2022-07-29T04:37:38;8.60;;;3.33;;
41039;SDS011;48586;50.122;18.972;2022-07-29T04:40:40;7.00;;;3.40;;
41039;SDS011;48586;50.122;18.972;2022-07-29T04:43:41;10.13;;;3.35;;
41039;SDS011;48586;50.122;18.972;2022-07-29T04:46:43;6.72;;;3.45;;
41039;SDS011;48586;50.122;18.972;2022-07-29T04:49:47;11.80;;;3.17;;
41039;SDS011;48586;50.122;18.972;2022-07-29T04:52:50;8.27;;;3.22;;
41039;SDS011;48586;50.122;18.972;2022-07-29T04:55:52;9.73;;;3.15;;
41039;SDS011;48586;50.122;18.972;2022-07-29T04:58:54;7.05;;;3.22;;
41039;SDS011;48586;50.122;18.972;2022-07-29T05:01:55;6.25;;;3.05;;
41039;SDS011;48586;50.122;18.972;2022-07-29T05:04:59;8.45;;;3.35;;
41039;SDS011;48586;50.122;18.972;2022-07-29T05:08:00;7.72;;;2.83;;
41039;SDS011;48586;50.122;18.972;2022-07-29T05:11:02;6.97;;;3.10;;
41039;SDS011;48586;50.122;18.972;2022-07-29T05:14:04;6.45;;;3.60;;
41039;SDS011;48586;50.122;18.972;2022-07-29T05:17:06;10.57;;;3.70;;
41039;SDS011;48586;50.122;18.972;2022-07-29T05:20:09;11.88;;;3.78;;
41039;SDS011;48586;50.122;18.972;2022-07-29T05:23:11;10.48;;;3.80;;
41039;SDS011;48586;50.122;18.972;2022-07-29T05:26:14;6.25;;;3.20;;
41039;SDS011;48586;50.122;18.972;2022-07-29T05:29:18;6.18;;;3.00;;
41039;SDS011;48586;50.122;18.972;2022-07-29T05:32:20;8.60;;;3.53;;
41039;SDS011;48586;50.122;18.972;2022-07-29T05:35:23;9.60;;;3.50;;
41039;SDS011;48586;50.122;18.972;2022-07-29T05:38:25;6.18;;;3.10;;
41039;SDS011;48586;50.122;18.972;2022-07-29T05:41:27;6.38;;;3.30;;
41039;SDS011;48586;50.122;18.972;2022-07-29T05:44:29;9.32;;;3.58;;
41039;SDS011;48586;50.122;18.972;2022-07-29T05:47:34;9.73;;;3.75;;
41039;SDS011;48586;50.122;18.972;2022-07-29T05:50:37;6.88;;;3.40;;
41039;SDS011;48586;50.122;18.972;2022-07-29T05:53:39;11.75;;;3.00;;
41039;SDS011;48586;50.122;18.972;2022-07-29T05:56:41;8.27;;;3.08;;
41039;SDS011;48586;50.122;18.972;2022-07-29T05:59:44;5.47;;;3.03;;
41039;SDS011;48586;50.122;18.972;2022-07-29T06:02:46;5.93;;;3.13;;
41039;SDS011;48586;50.122;18.972;2022-07-29T06:05:50;10.27;;;3.30;;
41039;SDS011;48586;50.122;18.972;2022-07-29T06:08:52;7.80;;;2.75;;
41039;SDS011;48586;50.122;18.972;2022-07-29T06:11:55;6.15;;;3.35;;
41039;SDS011;48586;50.122;18.972;2022-07-29T06:14:58;6.88;;;3.10;;
41039;SDS011;48586;50.122;18.972;2022-07-29T06:18:00;5.97;;;3.20;;
41039;SDS011;48586;50.122;18.972;2022-07-29T06:21:06;9.10;;;3.22;;
41039;SDS011;48586;50.122;18.972;2022-07-29T06:24:10;9.35;;;3.10;;
41039;SDS011;48586;50.122;18.972;2022-07-29T06:27:12;12.13;;;3.28;;
41039;SDS011;48586;50.122;18.972;2022-07-29T06:30:14;5.20;;;3.15;;
41039;SDS011;48586;50.122;18.972;2022-07-29T06:33:17;5.72;;;3.17;;
41039;SDS011;48586;50.122;18.972;2022-07-29T06:36:21;10.82;;;3.80;;
41039;SDS011;48586;50.122;18.972;2022-07-29T06:39:23;8.15;;;3.35;;
41039;SDS011;48586;50.122;18.972;2022-07-29T06:42:25;7.47;;;3.17;;
41039;SDS011;48586;50.122;18.972;2022-07-29T06:45:27;10.23;;;3.53;;
41039;SDS011;48586;50.122;18.972;2022-07-29T06:48:29;9.32;;;3.47;;
41039;SDS011;48586;50.122;18.972;2022-07-29T06:51:32;7.20;;;3.00;;
41039;SDS011;48586;50.122;18.972;2022-07-29T06:54:35;12.95;;;3.40;;
41039;SDS011;48586;50.122;18.972;2022-07-29T06:57:37;5.90;;;3.17;;
41039;SDS011;48586;50.122;18.972;2022-07-29T07:00:40;6.78;;;2.92;;
41039;SDS011;48586;50.122;18.972;2022-07-29T07:03:42;8.50;;;3.35;;
41039;SDS011;48586;50.122;18.972;2022-07-29T07:06:45;7.53;;;3.40;;
41039;SDS011;48586;50.122;18.972;2022-07-29T07:09:47;7.75;;;3.97;;
41039;SDS011;48586;50.122;18.972;2022-07-29T07:12:49;7.38;;;3.60;;
41039;SDS011;48586;50.122;18.972;2022-07-29T07:15:51;8.50;;;3.42;;
41039;SDS011;48586;50.122;18.972;2022-07-29T07:18:53;12.55;;;3.30;;
41039;SDS011;48586;50.122;18.972;2022-07-29T07:21:56;7.38;;;4.30;;
41039;SDS011;48586;50.122;18.972;2022-07-29T07:24:58;6.25;;;3.00;;
41039;SDS011;48586;50.122;18.972;2022-07-29T07:28:00;12.98;;;3.40;;
41039;SDS011;48586;50.122;18.972;2022-07-29T07:31:03;9.38;;;3.65;;
41039;SDS011;48586;50.122;18.972;2022-07-29T07:34:05;7.47;;;3.40;;
41039;SDS011;48586;50.122;18.972;2022-07-29T07:37:09;10.10;;;3.70;;
41039;SDS011;48586;50.122;18.972;2022-07-29T07:40:11;10.90;;;3.50;;
41039;SDS011;48586;50.122;18.972;2022-07-29T07:43:16;8.52;;;3.80;;
41039;SDS011;48586;50.122;18.972;2022-07-29T07:46:18;6.47;;;3.45;;
41039;SDS011;48586;50.122;18.972;2022-07-29T07:49:20;8.68;;;3.72;;
41039;SDS011;48586;50.122;18.972;2022-07-29T07:52:23;9.15;;;3.55;;
41039;SDS011;48586;50.122;18.972;2022-07-29T07:55:25;8.07;;;3.45;;
41039;SDS011;48586;50.122;18.972;2022-07-29T07:58:28;7.05;;;4.05;;
41039;SDS011;48586;50.122;18.972;2022-07-29T08:01:30;7.13;;;3.67;;
41039;SDS011;48586;50.122;18.972;2022-07-29T08:04:31;8.00;;;3.90;;
41039;SDS011;48586;50.122;18.972;2022-07-29T08:07:35;16.48;;;3.60;;
41039;SDS011;48586;50.122;18.972;2022-07-29T08:10:37;9.82;;;3.50;;
41039;SDS011;48586;50.122;18.972;2022-07-29T08:13:56;9.95;;;3.50;;
41039;SDS011;48586;50.122;18.972;2022-07-29T08:16:58;7.90;;;3.95;;
41039;SDS011;48586;50.122;18.972;2022-07-29T08:20:00;6.50;;;3.38;;
41039;SDS011;48586;50.122;18.972;2022-07-29T08:23:03;8.30;;;3.10;;
41039;SDS011;48586;50.122;18.972;2022-07-29T08:26:07;7.30;;;3.70;;
41039;SDS011;48586;50.122;18.972;2022-07-29T08:29:10;7.37;;;3.30;;
41039;SDS011;48586;50.122;18.972;2022-07-29T08:32:13;9.65;;;3.88;;
41039;SDS011;48586;50.122;18.972;2022-07-29T08:35:15;8.57;;;3.85;;
41039;SDS011;48586;50.122;18.972;2022-07-29T08:38:18;15.20;;;3.60;;
41039;SDS011;48586;50.122;18.972;2022-07-29T08:41:21;6.50;;;3.28;;
41039;SDS011;48586;50.122;18.972;2022-07-29T08:44:23;11.85;;;3.47;;
41039;SDS011;48586;50.122;18.972;2022-07-29T08:47:25;6.10;;;3.40;;
41039;SDS011;48586;50.122;18.972;2022-07-29T08:50:29;12.75;;;4.00;;
41039;SDS011;48586;50.122;18.972;2022-07-29T08:53:32;8.07;;;3.15;;
41039;SDS011;48586;50.122;18.972;2022-07-29T08:56:35;11.93;;;4.07;;
41039;SDS011;48586;50.122;18.972;2022-07-29T08:59:39;7.43;;;3.53;;
41039;SDS011;48586;50.122;18.972;2022-07-29T09:02:44;5.40;;;3.30;;
41039;SDS011;48586;50.122;18.972;2022-07-29T09:05:53;9.02;;;3.20;;
41039;SDS011;48586;50.122;18.972;2022-07-29T09:08:57;6.97;;;3.55;;
41039;SDS011;48586;50.122;18.972;2022-07-29T09:12:01;11.13;;;3.75;;
41039;SDS011;48586;50.122;18.972;2022-07-29T09:15:04;6.50;;;3.30;;
41039;SDS011;48586;50.122;18.972;2022-07-29T09:18:07;14.40;;;3.55;;
41039;SDS011;48586;50.122;18.972;2022-07-29T09:21:10;7.15;;;3.53;;
41039;SDS011;48586;50.122;18.972;2022-07-29T09:24:40;10.73;;;4.30;;
41039;SDS011;48586;50.122;18.972;2022-07-29T09:27:46;7.07;;;3.60;;
41039;SDS011;48586;50.122;18.972;2022-07-29T09:30:51;7.05;;;3.35;;
41039;SDS011;48586;50.122;18.972;2022-07-29T09:33:54;6.07;;;3.30;;
41039;SDS011;48586;50.122;18.972;2022-07-29T09:37:00;7.05;;;3.38;;
41039;SDS011;48586;50.122;18.972;2022-07-29T09:40:11;7.95;;;3.40;;
41039;SDS011;48586;50.122;18.972;2022-07-29T09:43:16;8.45;;;3.33;;
41039;SDS011;48586;50.122;18.972;2022-07-29T09:46:18;6.43;;;3.38;;
41039;SDS011;48586;50.122;18.972;2022-07-29T09:49:21;6.53;;;3.45;;
41039;SDS011;48586;50.122;18.972;2022-07-29T09:52:23;7.88;;;3.75;;
41039;SDS011;48586;50.122;18.972;2022-07-29T09:55:27;11.57;;;3.20;;
41039;SDS011;48586;50.122;18.972;2022-07-29T09:58:29;8.43;;;3.70;;
41039;SDS011;48586;50.122;18.972;2022-07-29T10:01:34;9.05;;;4.18;;
41039;SDS011;48586;50.122;18.972;2022-07-29T10:04:37;5.95;;;3.67;;
41039;SDS011;48586;50.122;18.972;2022-07-29T10:07:43;8.20;;;3.75;;
41039;SDS011;48586;50.122;18.972;2022-07-29T10:10:48;12.38;;;3.70;;
41039;SDS011;48586;50.122;18.972;2022-07-29T10:13:50;9.75;;;3.58;;
41039;SDS011;48586;50.122;18.972;2022-07-29T10:16:52;8.10;;;3.45;;
41039;SDS011;48586;50.122;18.972;2022-07-29T10:19:54;10.05;;;3.47;;
41039;SDS011;48586;50.122;18.972;2022-07-29T10:22:57;4.85;;;3.28;;
41039;SDS011;48586;50.122;18.972;2022-07-29T10:26:00;12.38;;;3.42;;
41039;SDS011;48586;50.122;18.972;2022-07-29T10:32:12;10.50;;;3.92;;
41039;SDS011;48586;50.122;18.972;2022-07-29T10:35:30;5.63;;;3.30;;
41039;SDS011;48586;50.122;18.972;2022-07-29T10:38:42;8.30;;;3.67;;
41039;SDS011;48586;50.122;18.972;2022-07-29T10:41:50;7.60;;;3.78;;
41039;SDS011;48586;50.122;18.972;2022-07-29T10:45:00;14.33;;;3.30;;
41039;SDS011;48586;50.122;18.972;2022-07-29T10:51:07;7.40;;;3.60;;
41039;SDS011;48586;50.122;18.972;2022-07-29T10:54:09;5.55;;;3.47;;
41039;SDS011;48586;50.122;18.972;2022-07-29T10:57:16;5.50;;;3.35;;
41039;SDS011;48586;50.122;18.972;2022-07-29T11:00:26;8.10;;;3.28;;
41039;SDS011;48586;50.122;18.972;2022-07-29T11:03:46;7.25;;;3.05;;
41039;SDS011;48586;50.122;18.972;2022-07-29T11:07:06;6.78;;;3.13;;
41039;SDS011;48586;50.122;18.972;2022-07-29T11:10:21;8.82;;;3.00;;
41039;SDS011;48586;50.122;18.972;2022-07-29T11:16:58;4.78;;;3.22;;
41039;SDS011;48586;50.122;18.972;2022-07-29T11:23:34;7.05;;;3.20;;
41039;SDS011;48586;50.122;18.972;2022-07-29T11:26:39;9.75;;;3.38;;
41039;SDS011;48586;50.122;18.972;2022-07-29T11:29:49;10.10;;;3.58;;
41039;SDS011;48586;50.122;18.972;2022-07-29T11:32:52;9.73;;;3.13;;
41039;SDS011;48586;50.122;18.972;2022-07-29T11:36:07;11.38;;;3.17;;
41039;SDS011;48586;50.122;18.972;2022-07-29T11:39:26;10.30;;;3.05;;
41039;SDS011;48586;50.122;18.972;2022-07-29T11:42:41;9.43;;;3.17;;
41039;SDS011;48586;50.122;18.972;2022-07-29T11:45:47;9.63;;;2.80;;
41039;SDS011;48586;50.122;18.972;2022-07-29T11:48:50;5.15;;;2.83;;
41039;SDS011;48586;50.122;18.972;2022-07-29T11:51:53;9.35;;;3.00;;
41039;SDS011;48586;50.122;18.972;2022-07-29T11:57:59;6.03;;;2.53;;
41039;SDS011;48586;50.122;18.972;2022-07-29T12:01:03;7.30;;;2.80;;
41039;SDS011;48586;50.122;18.972;2022-07-29T12:04:05;5.28;;;2.67;;
41039;SDS011;48586;50.122;18.972;2022-07-29T12:07:07;6.20;;;2.75;;
41039;SDS011;48586;50.122;18.972;2022-07-29T12:10:10;7.32;;;2.85;;
41039;SDS011;48586;50.122;18.972;2022-07-29T12:13:12;8.30;;;3.05;;
41039;SDS011;48586;50.122;18.972;2022-07-29T12:16:17;7.78;;;2.92;;
41039;SDS011;48586;50.122;18.972;2022-07-29T12:19:20;6.93;;;2.88;;
41039;SDS011;48586;50.122;18.972;2022-07-29T12:22:26;6.25;;;2.83;;
41039;SDS011;48586;50.122;18.972;2022-07-29T12:25:32;5.78;;;3.22;;
41039;SDS011;48586;50.122;18.972;2022-07-29T12:28:36;5.35;;;2.65;;
41039;SDS011;48586;50.122;18.972;2022-07-29T12:31:40;3.92;;;2.90;;
41039;SDS011;48586;50.122;18.972;2022-07-29T12:34:43;7.07;;;2.65;;
41039;SDS011;48586;50.122;18.972;2022-07-29T12:37:46;6.35;;;2.83;;
41039;SDS011;48586;50.122;18.972;2022-07-29T12:40:52;8.70;;;2.90;;
41039;SDS011;48586;50.122;18.972;2022-07-29T12:43:55;6.43;;;2.97;;
41039;SDS011;48586;50.122;18.972;2022-07-29T12:47:02;7.78;;;5.47;;
41039;SDS011;48586;50.122;18.972;2022-07-29T12:50:08;7.90;;;2.97;;
41039;SDS011;48586;50.122;18.972;2022-07-29T12:53:12;9.80;;;4.00;;
41039;SDS011;48586;50.122;18.972;2022-07-29T12:56:15;9.60;;;2.80;;
41039;SDS011;48586;50.122;18.972;2022-07-29T12:59:18;8.98;;;3.00;;
41039;SDS011;48586;50.122;18.972;2022-07-29T13:02:22;6.70;;;3.00;;
41039;SDS011;48586;50.122;18.972;2022-07-29T13:05:31;10.88;;;3.08;;
41039;SDS011;48586;50.122;18.972;2022-07-29T13:08:52;15.15;;;3.45;;
41039;SDS011;48586;50.122;18.972;2022-07-29T13:12:00;4.15;;;3.08;;
41039;SDS011;48586;50.122;18.972;2022-07-29T13:15:12;7.88;;;2.80;;
41039;SDS011;48586;50.122;18.972;2022-07-29T13:18:29;6.97;;;3.20;;
41039;SDS011;48586;50.122;18.972;2022-07-29T13:21:32;6.38;;;2.92;;
41039;SDS011;48586;50.122;18.972;2022-07-29T13:24:44;9.93;;;3.08;;
41039;SDS011;48586;50.122;18.972;2022-07-29T13:27:47;7.80;;;2.70;;
41039;SDS011;48586;50.122;18.972;2022-07-29T13:30:50;12.52;;;3.78;;
41039;SDS011;48586;50.122;18.972;2022-07-29T13:33:53;7.82;;;3.03;;
41039;SDS011;48586;50.122;18.972;2022-07-29T13:39:58;14.27;;;3.30;;
41039;SDS011;48586;50.122;18.972;2022-07-29T13:43:00;9.90;;;3.00;;
41039;SDS011;48586;50.122;18.972;2022-07-29T13:46:02;8.68;;;3.20;;
41039;SDS011;48586;50.122;18.972;2022-07-29T13:49:05;8.68;;;3.08;;
41039;SDS011;48586;50.122;18.972;2022-07-29T13:52:07;6.85;;;3.72;;
41039;SDS011;48586;50.122;18.972;2022-07-29T13:55:09;6.07;;;2.90;;
41039;SDS011;48586;50.122;18.972;2022-07-29T13:58:12;8.48;;;2.63;;
41039;SDS011;48586;50.122;18.972;2022-07-29T14:01:14;4.22;;;2.83;;
41039;SDS011;48586;50.122;18.972;2022-07-29T14:04:18;10.25;;;3.05;;
41039;SDS011;48586;50.122;18.972;2022-07-29T14:07:20;9.27;;;3.20;;
41039;SDS011;48586;50.122;18.972;2022-07-29T14:10:24;5.97;;;3.10;;
41039;SDS011;48586;50.122;18.972;2022-07-29T14:13:27;9.82;;;3.10;;
41039;SDS011;48586;50.122;18.972;2022-07-29T14:16:29;4.35;;;2.85;;
41039;SDS011;48586;50.122;18.972;2022-07-29T14:19:33;5.75;;;3.00;;
41039;SDS011;48586;50.122;18.972;2022-07-29T14:22:38;10.82;;;3.38;;
41039;SDS011;48586;50.122;18.972;2022-07-29T14:25:40;9.30;;;3.40;;
41039;SDS011;48586;50.122;18.972;2022-07-29T14:28:42;8.38;;;2.92;;
41039;SDS011;48586;50.122;18.972;2022-07-29T14:31:45;8.50;;;2.78;;
41039;SDS011;48586;50.122;18.972;2022-07-29T14:34:51;5.53;;;2.70;;
41039;SDS011;48586;50.122;18.972;2022-07-29T14:37:54;10.30;;;2.75;;
41039;SDS011;48586;50.122;18.972;2022-07-29T14:40:57;10.37;;;3.00;;
41039;SDS011;48586;50.122;18.972;2022-07-29T14:44:00;6.70;;;2.72;;
41039;SDS011;48586;50.122;18.972;2022-07-29T14:47:02;8.25;;;3.13;;
41039;SDS011;48586;50.122;18.972;2022-07-29T14:50:07;8.15;;;2.88;;
41039;SDS011;48586;50.122;18.972;2022-07-29T14:53:10;5.68;;;3.00;;
41039;SDS011;48586;50.122;18.972;2022-07-29T14:56:13;6.77;;;2.70;;
41039;SDS011;48586;50.122;18.972;2022-07-29T14:59:16;8.35;;;2.70;;
41039;SDS011;48586;50.122;18.972;2022-07-29T15:02:19;5.18;;;3.03;;
41039;SDS011;48586;50.122;18.972;2022-07-29T15:05:23;10.63;;;2.92;;
41039;SDS011;48586;50.122;18.972;2022-07-29T15:08:26;8.52;;;2.80;;
41039;SDS011;48586;50.122;18.972;2022-07-29T15:11:30;7.88;;;3.15;;
41039;SDS011;48586;50.122;18.972;2022-07-29T15:14:34;10.90;;;2.85;;
41039;SDS011;48586;50.122;18.972;2022-07-29T15:17:36;8.70;;;3.80;;
41039;SDS011;48586;50.122;18.972;2022-07-29T15:20:40;10.38;;;3.15;;
41039;SDS011;48586;50.122;18.972;2022-07-29T15:23:42;8.50;;;3.03;;
41039;SDS011;48586;50.122;18.972;2022-07-29T15:26:46;7.97;;;5.90;;
41039;SDS011;48586;50.122;18.972;2022-07-29T15:29:49;7.70;;;3.08;;
41039;SDS011;48586;50.122;18.972;2022-07-29T15:32:52;7.72;;;3.10;;
41039;SDS011;48586;50.122;18.972;2022-07-29T15:35:57;9.35;;;3.50;;
41039;SDS011;48586;50.122;18.972;2022-07-29T15:38:59;5.35;;;3.13;;
41039;SDS011;48586;50.122;18.972;2022-07-29T15:42:01;8.73;;;3.42;;
41039;SDS011;48586;50.122;18.972;2022-07-29T15:45:05;8.00;;;3.38;;
41039;SDS011;48586;50.122;18.972;2022-07-29T15:48:08;7.17;;;3.20;;
41039;SDS011;48586;50.122;18.972;2022-07-29T15:51:13;6.05;;;3.00;;
41039;SDS011;48586;50.122;18.972;2022-07-29T15:54:15;7.35;;;3.42;;
41039;SDS011;48586;50.122;18.972;2022-07-29T15:57:18;11.38;;;3.47;;
41039;SDS011;48586;50.122;18.972;2022-07-29T16:00:20;6.38;;;3.40;;
41039;SDS011;48586;50.122;18.972;2022-07-29T16:03:23;6.68;;;3.60;;
41039;SDS011;48586;50.122;18.972;2022-07-29T16:06:27;8.85;;;4.03;;
41039;SDS011;48586;50.122;18.972;2022-07-29T16:09:30;12.52;;;3.90;;
41039;SDS011;48586;50.122;18.972;2022-07-29T16:12:34;11.27;;;3.80;;
41039;SDS011;48586;50.122;18.972;2022-07-29T16:15:36;10.00;;;3.63;;
41039;SDS011;48586;50.122;18.972;2022-07-29T16:18:39;11.60;;;4.45;;
41039;SDS011;48586;50.122;18.972;2022-07-29T16:21:43;5.97;;;3.67;;
41039;SDS011;48586;50.122;18.972;2022-07-29T16:24:46;5.60;;;4.17;;
41039;SDS011;48586;50.122;18.972;2022-07-29T16:27:48;11.13;;;4.15;;
41039;SDS011;48586;50.122;18.972;2022-07-29T16:30:51;7.18;;;4.20;;
41039;SDS011;48586;50.122;18.972;2022-07-29T16:33:53;9.35;;;5.07;;
41039;SDS011;48586;50.122;18.972;2022-07-29T16:36:58;7.22;;;4.30;;
41039;SDS011;48586;50.122;18.972;2022-07-29T16:40:00;8.48;;;4.65;;
41039;SDS011;48586;50.122;18.972;2022-07-29T16:43:03;9.18;;;4.80;;
41039;SDS011;48586;50.122;18.972;2022-07-29T16:46:06;7.05;;;4.43;;
41039;SDS011;48586;50.122;18.972;2022-07-29T16:49:09;14.48;;;4.72;;
41039;SDS011;48586;50.122;18.972;2022-07-29T16:52:13;10.10;;;4.63;;
41039;SDS011;48586;50.122;18.972;2022-07-29T16:55:15;7.35;;;4.70;;
41039;SDS011;48586;50.122;18.972;2022-07-29T16:58:17;9.50;;;4.38;;
41039;SDS011;48586;50.122;18.972;2022-07-29T17:01:20;8.05;;;4.35;;
41039;SDS011;48586;50.122;18.972;2022-07-29T17:04:22;11.82;;;4.22;;
41039;SDS011;48586;50.122;18.972;2022-07-29T17:07:25;8.45;;;4.70;;
41039;SDS011;48586;50.122;18.972;2022-07-29T17:10:27;12.50;;;5.07;;
41039;SDS011;48586;50.122;18.972;2022-07-29T17:13:29;8.93;;;4.40;;
41039;SDS011;48586;50.122;18.972;2022-07-29T17:16:32;8.90;;;4.30;;
41039;SDS011;48586;50.122;18.972;2022-07-29T17:19:34;7.93;;;4.75;;
41039;SDS011;48586;50.122;18.972;2022-07-29T17:22:38;11.18;;;6.22;;
41039;SDS011;48586;50.122;18.972;2022-07-29T17:25:40;9.47;;;5.20;;
41039;SDS011;48586;50.122;18.972;2022-07-29T17:28:42;7.97;;;5.15;;
41039;SDS011;48586;50.122;18.972;2022-07-29T17:31:44;9.95;;;5.07;;
41039;SDS011;48586;50.122;18.972;2022-07-29T17:34:47;7.25;;;4.95;;
41039;SDS011;48586;50.122;18.972;2022-07-29T17:37:50;9.23;;;5.13;;
41039;SDS011;48586;50.122;18.972;2022-07-29T17:40:52;7.47;;;4.70;;
41039;SDS011;48586;50.122;18.972;2022-07-29T17:43:55;8.43;;;4.15;;
41039;SDS011;48586;50.122;18.972;2022-07-29T17:46:57;10.07;;;4.80;;
41039;SDS011;48586;50.122;18.972;2022-07-29T17:49:59;12.93;;;5.63;;
41039;SDS011;48586;50.122;18.972;2022-07-29T17:53:03;10.80;;;5.93;;
41039;SDS011;48586;50.122;18.972;2022-07-29T17:56:05;13.55;;;5.47;;
41039;SDS011;48586;50.122;18.972;2022-07-29T17:59:08;9.23;;;6.10;;
41039;SDS011;48586;50.122;18.972;2022-07-29T18:02:10;11.98;;;5.80;;
41039;SDS011;48586;50.122;18.972;2022-07-29T18:05:13;11.95;;;6.53;;
41039;SDS011;48586;50.122;18.972;2022-07-29T18:08:19;12.80;;;6.45;;
41039;SDS011;48586;50.122;18.972;2022-07-29T18:11:22;12.95;;;6.93;;
41039;SDS011;48586;50.122;18.972;2022-07-29T18:14:25;9.73;;;5.88;;
41039;SDS011;48586;50.122;18.972;2022-07-29T18:17:28;9.30;;;6.00;;
41039;SDS011;48586;50.122;18.972;2022-07-29T18:20:30;9.35;;;6.05;;
41039;SDS011;48586;50.122;18.972;2022-07-29T18:23:33;10.88;;;5.95;;
41039;SDS011;48586;50.122;18.972;2022-07-29T18:26:35;10.40;;;5.97;;
41039;SDS011;48586;50.122;18.972;2022-07-29T18:29:38;12.35;;;6.78;;
41039;SDS011;48586;50.122;18.972;2022-07-29T18:32:40;9.20;;;5.95;;